sensor_id;sensor_type;location;lat;lon;timestamp;pressure;altitude;pressure_sealevel;temperature;humidity
73624;BME280;61921;53.226;-1.296;2023-08-30T00:01:32;99582.68;;;12.90;89.37
73624;BME280;61921;53.226;-1.296;2023-08-30T00:03:57;99581.89;;;12.94;89.90
73624;BME280;61921;53.226;-1.296;2023-08-30T00:06:23;99583.12;;;12.90;90.30
73624;BME280;61921;53.226;-1.296;2023-08-30T00:08:49;99582.50;;;12.85;90.77
73624;BME280;61921;53.226;-1.296;2023-08-30T00:11:14;99582.61;;;12.84;90.81
73624;BME280;61921;53.226;-1.296;2023-08-30T00:13:38;99585.23;;;12.71;93.42
73624;BME280;61921;53.226;-1.296;2023-08-30T00:16:04;99585.49;;;12.93;93.11
73624;BME280;61921;53.226;-1.296;2023-08-30T00:18:29;99579.76;;;13.05;92.70
73624;BME280;61921;53.226;-1.296;2023-08-30T00:20:54;99572.07;;;13.41;91.65
73624;BME280;61921;53.226;-1.296;2023-08-30T00:23:19;99570.12;;;13.44;90.71
73624;BME280;61921;53.226;-1.296;2023-08-30T00:25:45;99567.26;;;13.65;89.54
73624;BME280;61921;53.226;-1.296;2023-08-30T00:28:11;99568.28;;;13.59;90.19
73624;BME280;61921;53.226;-1.296;2023-08-30T00:30:35;99568.30;;;13.69;89.84
73624;BME280;61921;53.226;-1.296;2023-08-30T00:33:00;99567.93;;;13.86;89.09
73624;BME280;61921;53.226;-1.296;2023-08-30T00:35:26;99564.41;;;13.99;88.50
73624;BME280;61921;53.226;-1.296;2023-08-30T00:37:51;99566.83;;;14.10;87.79
73624;BME280;61921;53.226;-1.296;2023-08-30T00:40:17;99564.83;;;14.18;87.91
73624;BME280;61921;53.226;-1.296;2023-08-30T00:42:41;99561.63;;;14.13;87.67
73624;BME280;61921;53.226;-1.296;2023-08-30T00:45:07;99564.63;;;14.28;87.35
73624;BME280;61921;53.226;-1.296;2023-08-30T00:47:33;99570.92;;;14.07;88.77
73624;BME280;61921;53.226;-1.296;2023-08-30T00:49:58;99574.95;;;14.10;88.56
73624;BME280;61921;53.226;-1.296;2023-08-30T00:52:24;99573.12;;;13.85;89.99
73624;BME280;61921;53.226;-1.296;2023-08-30T00:54:49;99570.24;;;14.00;89.43
73624;BME280;61921;53.226;-1.296;2023-08-30T00:57:14;99572.29;;;13.76;90.62
73624;BME280;61921;53.226;-1.296;2023-08-30T00:59:39;99574.46;;;13.66;90.97
73624;BME280;61921;53.226;-1.296;2023-08-30T01:02:05;99574.60;;;13.57;91.85
73624;BME280;61921;53.226;-1.296;2023-08-30T01:04:30;99571.34;;;13.70;91.51
73624;BME280;61921;53.226;-1.296;2023-08-30T01:06:55;99568.51;;;13.64;91.57
73624;BME280;61921;53.226;-1.296;2023-08-30T01:09:21;99571.99;;;13.63;91.90
73624;BME280;61921;53.226;-1.296;2023-08-30T01:11:50;99570.40;;;13.70;91.34
73624;BME280;61921;53.226;-1.296;2023-08-30T01:14:15;99562.47;;;13.78;91.24
73624;BME280;61921;53.226;-1.296;2023-08-30T01:16:37;99561.08;;;13.67;91.71
73624;BME280;61921;53.226;-1.296;2023-08-30T01:19:09;99559.88;;;13.60;91.66
73624;BME280;61921;53.226;-1.296;2023-08-30T01:21:36;99554.79;;;13.58;91.89
73624;BME280;61921;53.226;-1.296;2023-08-30T01:23:58;99551.74;;;13.67;91.80
73624;BME280;61921;53.226;-1.296;2023-08-30T01:26:24;99552.91;;;13.76;91.31
73624;BME280;61921;53.226;-1.296;2023-08-30T01:28:44;99558.18;;;13.60;91.82
73624;BME280;61921;53.226;-1.296;2023-08-30T01:31:10;99557.66;;;13.41;92.78
73624;BME280;61921;53.226;-1.296;2023-08-30T01:33:34;99557.55;;;13.22;93.72
73624;BME280;61921;53.226;-1.296;2023-08-30T01:36:00;99551.11;;;13.31;93.47
73624;BME280;61921;53.226;-1.296;2023-08-30T01:38:25;99549.80;;;13.30;93.17
73624;BME280;61921;53.226;-1.296;2023-08-30T01:40:50;99549.68;;;13.34;92.92
73624;BME280;61921;53.226;-1.296;2023-08-30T01:43:16;99548.69;;;13.35;92.84
73624;BME280;61921;53.226;-1.296;2023-08-30T01:45:42;99544.09;;;13.39;92.55
73624;BME280;61921;53.226;-1.296;2023-08-30T01:48:08;99543.31;;;13.36;92.73
73624;BME280;61921;53.226;-1.296;2023-08-30T01:50:32;99541.77;;;13.31;93.25
73624;BME280;61921;53.226;-1.296;2023-08-30T01:52:57;99537.33;;;13.33;92.52
73624;BME280;61921;53.226;-1.296;2023-08-30T01:55:22;99533.61;;;13.32;92.75
73624;BME280;61921;53.226;-1.296;2023-08-30T01:57:47;99530.29;;;13.39;91.93
73624;BME280;61921;53.226;-1.296;2023-08-30T02:00:13;99529.18;;;13.30;92.19
73624;BME280;61921;53.226;-1.296;2023-08-30T02:02:37;99529.96;;;13.03;94.32
73624;BME280;61921;53.226;-1.296;2023-08-30T02:05:03;99527.61;;;12.86;95.63
73624;BME280;61921;53.226;-1.296;2023-08-30T02:07:33;99528.09;;;12.97;94.32
73624;BME280;61921;53.226;-1.296;2023-08-30T02:09:57;99527.39;;;12.91;94.10
73624;BME280;61921;53.226;-1.296;2023-08-30T02:12:20;99529.59;;;12.95;93.42
73624;BME280;61921;53.226;-1.296;2023-08-30T02:14:48;99526.96;;;12.78;94.09
73624;BME280;61921;53.226;-1.296;2023-08-30T02:17:15;99527.47;;;12.54;95.18
73624;BME280;61921;53.226;-1.296;2023-08-30T02:19:35;99526.15;;;12.53;97.29
73624;BME280;61921;53.226;-1.296;2023-08-30T02:22:00;99524.63;;;12.65;97.05
73624;BME280;61921;53.226;-1.296;2023-08-30T02:24:26;99522.22;;;12.75;95.92
73624;BME280;61921;53.226;-1.296;2023-08-30T02:26:51;99518.57;;;12.67;94.74
73624;BME280;61921;53.226;-1.296;2023-08-30T02:29:17;99517.20;;;12.74;95.70
73624;BME280;61921;53.226;-1.296;2023-08-30T02:31:42;99514.93;;;12.69;95.34
73624;BME280;61921;53.226;-1.296;2023-08-30T02:34:08;99517.22;;;12.41;99.42
73624;BME280;61921;53.226;-1.296;2023-08-30T02:36:33;99518.65;;;12.65;97.24
73624;BME280;61921;53.226;-1.296;2023-08-30T02:38:58;99515.22;;;12.71;95.92
73624;BME280;61921;53.226;-1.296;2023-08-30T02:41:24;99514.68;;;12.50;96.20
73624;BME280;61921;53.226;-1.296;2023-08-30T02:43:48;99516.86;;;12.43;97.72
73624;BME280;61921;53.226;-1.296;2023-08-30T02:46:14;99520.14;;;12.48;97.90
73624;BME280;61921;53.226;-1.296;2023-08-30T02:48:39;99520.70;;;12.54;96.27
73624;BME280;61921;53.226;-1.296;2023-08-30T02:51:05;99516.71;;;12.45;97.06
73624;BME280;61921;53.226;-1.296;2023-08-30T02:53:30;99515.88;;;12.50;96.13
73624;BME280;61921;53.226;-1.296;2023-08-30T02:55:55;99514.01;;;12.24;98.54
73624;BME280;61921;53.226;-1.296;2023-08-30T02:58:21;99515.23;;;12.38;98.68
73624;BME280;61921;53.226;-1.296;2023-08-30T03:00:46;99511.67;;;12.31;98.92
73624;BME280;61921;53.226;-1.296;2023-08-30T03:03:12;99508.62;;;12.37;98.19
73624;BME280;61921;53.226;-1.296;2023-08-30T03:05:37;99506.42;;;12.23;98.25
73624;BME280;61921;53.226;-1.296;2023-08-30T03:08:02;99505.17;;;12.18;99.44
73624;BME280;61921;53.226;-1.296;2023-08-30T03:10:27;99513.86;;;12.28;98.57
73624;BME280;61921;53.226;-1.296;2023-08-30T03:12:53;99509.38;;;12.37;97.76
73624;BME280;61921;53.226;-1.296;2023-08-30T03:15:18;99508.02;;;12.09;99.75
73624;BME280;61921;53.226;-1.296;2023-08-30T03:17:43;99507.35;;;12.05;100.00
73624;BME280;61921;53.226;-1.296;2023-08-30T03:20:09;99512.30;;;12.00;99.34
73624;BME280;61921;53.226;-1.296;2023-08-30T03:22:34;99508.97;;;12.12;99.01
73624;BME280;61921;53.226;-1.296;2023-08-30T03:24:59;99505.84;;;11.93;99.23
73624;BME280;61921;53.226;-1.296;2023-08-30T03:27:25;99502.41;;;12.12;99.39
73624;BME280;61921;53.226;-1.296;2023-08-30T03:29:50;99501.50;;;12.16;100.00
73624;BME280;61921;53.226;-1.296;2023-08-30T03:32:17;99499.62;;;12.34;99.99
73624;BME280;61921;53.226;-1.296;2023-08-30T03:34:44;99506.02;;;12.41;100.00
73624;BME280;61921;53.226;-1.296;2023-08-30T03:37:06;99502.05;;;12.66;99.46
73624;BME280;61921;53.226;-1.296;2023-08-30T03:39:32;99499.58;;;12.83;98.62
73624;BME280;61921;53.226;-1.296;2023-08-30T03:41:57;99497.89;;;12.79;98.38
73624;BME280;61921;53.226;-1.296;2023-08-30T03:44:23;99493.77;;;12.75;98.43
73624;BME280;61921;53.226;-1.296;2023-08-30T03:46:48;99497.36;;;12.96;98.14
73624;BME280;61921;53.226;-1.296;2023-08-30T03:49:13;99495.57;;;13.07;97.39
73624;BME280;61921;53.226;-1.296;2023-08-30T03:51:38;99491.89;;;13.07;96.44
73624;BME280;61921;53.226;-1.296;2023-08-30T03:54:04;99495.39;;;13.11;96.33
73624;BME280;61921;53.226;-1.296;2023-08-30T03:56:29;99494.99;;;13.09;95.85
73624;BME280;61921;53.226;-1.296;2023-08-30T03:58:54;99495.37;;;13.11;95.04
73624;BME280;61921;53.226;-1.296;2023-08-30T04:01:19;99501.41;;;13.04;95.44
73624;BME280;61921;53.226;-1.296;2023-08-30T04:03:45;99502.56;;;13.04;95.05
73624;BME280;61921;53.226;-1.296;2023-08-30T04:06:11;99498.88;;;12.86;95.62
73624;BME280;61921;53.226;-1.296;2023-08-30T04:08:37;99497.55;;;12.85;95.51
73624;BME280;61921;53.226;-1.296;2023-08-30T04:11:02;99504.48;;;12.68;96.39
73624;BME280;61921;53.226;-1.296;2023-08-30T04:13:27;99508.01;;;12.49;97.63
73624;BME280;61921;53.226;-1.296;2023-08-30T04:15:52;99508.61;;;12.24;98.82
73624;BME280;61921;53.226;-1.296;2023-08-30T04:18:18;99509.71;;;12.34;98.33
73624;BME280;61921;53.226;-1.296;2023-08-30T04:20:44;99510.09;;;12.22;99.12
73624;BME280;61921;53.226;-1.296;2023-08-30T04:23:08;99509.98;;;12.20;99.99
73624;BME280;61921;53.226;-1.296;2023-08-30T04:25:34;99504.89;;;12.35;98.73
73624;BME280;61921;53.226;-1.296;2023-08-30T04:27:59;99505.16;;;12.16;99.34
73624;BME280;61921;53.226;-1.296;2023-08-30T04:30:24;99505.68;;;11.99;100.00
73624;BME280;61921;53.226;-1.296;2023-08-30T04:32:50;99504.26;;;12.08;100.00
73624;BME280;61921;53.226;-1.296;2023-08-30T04:35:15;99505.76;;;12.15;99.10
73624;BME280;61921;53.226;-1.296;2023-08-30T04:37:40;99510.23;;;12.03;99.87
73624;BME280;61921;53.226;-1.296;2023-08-30T04:40:07;99505.55;;;12.06;99.60
73624;BME280;61921;53.226;-1.296;2023-08-30T04:42:30;99501.16;;;12.09;100.00
73624;BME280;61921;53.226;-1.296;2023-08-30T04:44:56;99495.78;;;12.33;98.83
73624;BME280;61921;53.226;-1.296;2023-08-30T04:47:22;99490.62;;;12.33;98.83
73624;BME280;61921;53.226;-1.296;2023-08-30T04:49:50;99488.08;;;12.30;99.44
73624;BME280;61921;53.226;-1.296;2023-08-30T04:52:12;99486.37;;;12.16;99.72
73624;BME280;61921;53.226;-1.296;2023-08-30T04:54:38;99485.54;;;12.23;99.77
73624;BME280;61921;53.226;-1.296;2023-08-30T04:57:03;99487.05;;;12.32;98.13
73624;BME280;61921;53.226;-1.296;2023-08-30T04:59:28;99488.67;;;12.26;98.21
73624;BME280;61921;53.226;-1.296;2023-08-30T05:01:54;99489.99;;;12.11;98.25
73624;BME280;61921;53.226;-1.296;2023-08-30T05:04:19;99494.52;;;12.23;97.33
73624;BME280;61921;53.226;-1.296;2023-08-30T05:06:44;99497.94;;;12.24;98.00
73624;BME280;61921;53.226;-1.296;2023-08-30T05:09:10;99500.40;;;12.33;96.65
73624;BME280;61921;53.226;-1.296;2023-08-30T05:11:35;99497.97;;;12.37;96.61
73624;BME280;61921;53.226;-1.296;2023-08-30T05:14:00;99498.02;;;12.16;96.87
73624;BME280;61921;53.226;-1.296;2023-08-30T05:16:26;99500.48;;;12.02;98.74
73624;BME280;61921;53.226;-1.296;2023-08-30T05:18:51;99500.91;;;11.77;100.00
73624;BME280;61921;53.226;-1.296;2023-08-30T05:21:16;99497.32;;;11.87;100.00
73624;BME280;61921;53.226;-1.296;2023-08-30T05:23:42;99499.85;;;12.02;100.00
73624;BME280;61921;53.226;-1.296;2023-08-30T05:26:07;99501.02;;;12.29;99.17
73624;BME280;61921;53.226;-1.296;2023-08-30T05:28:32;99504.23;;;12.45;99.24
73624;BME280;61921;53.226;-1.296;2023-08-30T05:30:58;99505.62;;;12.54;98.34
73624;BME280;61921;53.226;-1.296;2023-08-30T05:33:23;99505.86;;;12.82;97.41
73624;BME280;61921;53.226;-1.296;2023-08-30T05:35:48;99509.33;;;12.82;97.07
73624;BME280;61921;53.226;-1.296;2023-08-30T05:38:14;99509.41;;;13.16;95.93
73624;BME280;61921;53.226;-1.296;2023-08-30T05:40:39;99509.08;;;13.33;94.71
73624;BME280;61921;53.226;-1.296;2023-08-30T05:43:04;99511.89;;;13.43;93.71
73624;BME280;61921;53.226;-1.296;2023-08-30T05:45:30;99510.98;;;13.60;93.39
73624;BME280;61921;53.226;-1.296;2023-08-30T05:47:55;99508.02;;;13.62;92.49
73624;BME280;61921;53.226;-1.296;2023-08-30T05:50:21;99511.16;;;13.64;91.85
73624;BME280;61921;53.226;-1.296;2023-08-30T05:52:46;99512.75;;;13.61;91.32
73624;BME280;61921;53.226;-1.296;2023-08-30T05:55:11;99512.10;;;13.58;91.47
73624;BME280;61921;53.226;-1.296;2023-08-30T05:57:37;99513.64;;;13.49;92.07
73624;BME280;61921;53.226;-1.296;2023-08-30T06:00:03;99518.86;;;13.46;92.87
73624;BME280;61921;53.226;-1.296;2023-08-30T06:02:27;99511.92;;;13.44;92.31
73624;BME280;61921;53.226;-1.296;2023-08-30T06:04:52;99510.84;;;13.62;91.79
73624;BME280;61921;53.226;-1.296;2023-08-30T06:07:17;99508.30;;;13.86;91.39
73624;BME280;61921;53.226;-1.296;2023-08-30T06:09:44;99511.57;;;14.02;90.28
73624;BME280;61921;53.226;-1.296;2023-08-30T06:12:08;99516.76;;;14.34;90.28
73624;BME280;61921;53.226;-1.296;2023-08-30T06:14:34;99516.25;;;14.54;89.03
73624;BME280;61921;53.226;-1.296;2023-08-30T06:16:59;99513.29;;;14.73;86.80
73624;BME280;61921;53.226;-1.296;2023-08-30T06:19:24;99515.84;;;14.69;87.92
73624;BME280;61921;53.226;-1.296;2023-08-30T06:21:49;99514.84;;;14.95;86.85
73624;BME280;61921;53.226;-1.296;2023-08-30T06:24:15;99516.34;;;14.95;86.91
73624;BME280;61921;53.226;-1.296;2023-08-30T06:26:40;99514.49;;;14.99;86.68
73624;BME280;61921;53.226;-1.296;2023-08-30T06:29:05;99518.28;;;15.03;86.65
73624;BME280;61921;53.226;-1.296;2023-08-30T06:31:31;99525.00;;;15.15;86.36
73624;BME280;61921;53.226;-1.296;2023-08-30T06:33:56;99523.56;;;15.16;85.62
73624;BME280;61921;53.226;-1.296;2023-08-30T06:36:21;99526.25;;;15.25;85.31
73624;BME280;61921;53.226;-1.296;2023-08-30T06:38:46;99518.16;;;15.37;85.32
73624;BME280;61921;53.226;-1.296;2023-08-30T06:41:12;99518.52;;;14.94;87.36
73624;BME280;61921;53.226;-1.296;2023-08-30T06:43:37;99517.37;;;14.72;86.54
73624;BME280;61921;53.226;-1.296;2023-08-30T06:46:02;99518.11;;;14.95;85.48
73624;BME280;61921;53.226;-1.296;2023-08-30T06:48:27;99510.59;;;15.07;83.55
73624;BME280;61921;53.226;-1.296;2023-08-30T06:50:56;99510.96;;;14.89;84.36
73624;BME280;61921;53.226;-1.296;2023-08-30T06:53:18;99514.80;;;15.05;84.51
73624;BME280;61921;53.226;-1.296;2023-08-30T06:55:43;99515.32;;;15.01;83.78
73624;BME280;61921;53.226;-1.296;2023-08-30T06:58:08;99510.94;;;15.38;83.75
73624;BME280;61921;53.226;-1.296;2023-08-30T07:00:34;99514.63;;;15.67;82.98
73624;BME280;61921;53.226;-1.296;2023-08-30T07:03:00;99514.31;;;15.54;82.70
73624;BME280;61921;53.226;-1.296;2023-08-30T07:05:24;99511.94;;;15.29;84.47
73624;BME280;61921;53.226;-1.296;2023-08-30T07:07:50;99518.47;;;15.15;85.42
73624;BME280;61921;53.226;-1.296;2023-08-30T07:10:16;99519.46;;;14.81;86.62
73624;BME280;61921;53.226;-1.296;2023-08-30T07:12:40;99519.89;;;14.66;87.03
73624;BME280;61921;53.226;-1.296;2023-08-30T07:15:06;99517.64;;;14.80;87.31
73624;BME280;61921;53.226;-1.296;2023-08-30T07:17:30;99513.95;;;14.66;86.36
73624;BME280;61921;53.226;-1.296;2023-08-30T07:19:56;99512.73;;;14.66;86.44
73624;BME280;61921;53.226;-1.296;2023-08-30T07:22:21;99512.55;;;14.90;86.51
73624;BME280;61921;53.226;-1.296;2023-08-30T07:24:47;99517.42;;;14.99;85.83
73624;BME280;61921;53.226;-1.296;2023-08-30T07:27:13;99510.32;;;15.24;85.19
73624;BME280;61921;53.226;-1.296;2023-08-30T07:29:37;99514.49;;;15.15;84.58
73624;BME280;61921;53.226;-1.296;2023-08-30T07:32:02;99513.23;;;15.03;84.82
73624;BME280;61921;53.226;-1.296;2023-08-30T07:34:28;99510.83;;;15.04;86.20
73624;BME280;61921;53.226;-1.296;2023-08-30T07:36:54;99505.63;;;15.03;86.28
73624;BME280;61921;53.226;-1.296;2023-08-30T07:39:18;99507.22;;;14.89;86.54
73624;BME280;61921;53.226;-1.296;2023-08-30T07:41:43;99513.47;;;14.92;85.65
73624;BME280;61921;53.226;-1.296;2023-08-30T07:44:08;99515.60;;;14.51;87.54
73624;BME280;61921;53.226;-1.296;2023-08-30T07:46:34;99521.80;;;14.53;88.25
73624;BME280;61921;53.226;-1.296;2023-08-30T07:48:59;99524.20;;;14.33;88.41
73624;BME280;61921;53.226;-1.296;2023-08-30T07:51:25;99524.41;;;14.48;88.03
73624;BME280;61921;53.226;-1.296;2023-08-30T07:53:49;99524.23;;;14.82;87.58
73624;BME280;61921;53.226;-1.296;2023-08-30T07:56:15;99523.70;;;15.02;86.29
73624;BME280;61921;53.226;-1.296;2023-08-30T07:58:40;99522.76;;;15.25;84.10
73624;BME280;61921;53.226;-1.296;2023-08-30T08:01:05;99522.22;;;15.01;84.35
73624;BME280;61921;53.226;-1.296;2023-08-30T08:03:31;99522.99;;;15.11;85.06
73624;BME280;61921;53.226;-1.296;2023-08-30T08:05:58;99520.99;;;14.88;85.78
73624;BME280;61921;53.226;-1.296;2023-08-30T08:08:21;99526.73;;;14.65;86.60
73624;BME280;61921;53.226;-1.296;2023-08-30T08:10:46;99525.49;;;14.87;85.61
73624;BME280;61921;53.226;-1.296;2023-08-30T08:13:12;99527.40;;;14.90;85.59
73624;BME280;61921;53.226;-1.296;2023-08-30T08:15:37;99526.09;;;15.00;87.78
73624;BME280;61921;53.226;-1.296;2023-08-30T08:18:02;99531.01;;;15.02;88.33
73624;BME280;61921;53.226;-1.296;2023-08-30T08:20:28;99531.29;;;15.15;87.44
73624;BME280;61921;53.226;-1.296;2023-08-30T08:22:53;99528.10;;;14.99;89.39
73624;BME280;61921;53.226;-1.296;2023-08-30T08:25:18;99523.70;;;15.28;91.40
73624;BME280;61921;53.226;-1.296;2023-08-30T08:27:43;99524.04;;;15.47;89.82
73624;BME280;61921;53.226;-1.296;2023-08-30T08:30:11;99521.87;;;15.79;87.95
73624;BME280;61921;53.226;-1.296;2023-08-30T08:32:34;99517.56;;;15.95;88.75
73624;BME280;61921;53.226;-1.296;2023-08-30T08:34:59;99520.73;;;16.29;86.92
73624;BME280;61921;53.226;-1.296;2023-08-30T08:37:24;99526.75;;;16.32;83.35
73624;BME280;61921;53.226;-1.296;2023-08-30T08:39:49;99528.54;;;16.29;82.70
73624;BME280;61921;53.226;-1.296;2023-08-30T08:42:17;99533.08;;;15.99;84.22
73624;BME280;61921;53.226;-1.296;2023-08-30T08:44:41;99536.83;;;16.04;85.46
73624;BME280;61921;53.226;-1.296;2023-08-30T08:47:05;99538.62;;;15.72;87.12
73624;BME280;61921;53.226;-1.296;2023-08-30T08:49:30;99538.18;;;15.64;89.18
73624;BME280;61921;53.226;-1.296;2023-08-30T08:51:56;99541.28;;;15.38;93.00
73624;BME280;61921;53.226;-1.296;2023-08-30T08:54:21;99541.45;;;15.51;94.17
73624;BME280;61921;53.226;-1.296;2023-08-30T08:56:47;99541.43;;;15.42;94.38
73624;BME280;61921;53.226;-1.296;2023-08-30T08:59:12;99541.29;;;15.57;94.28
73624;BME280;61921;53.226;-1.296;2023-08-30T09:01:38;99541.22;;;15.54;94.59
73624;BME280;61921;53.226;-1.296;2023-08-30T09:04:04;99539.56;;;15.35;96.30
73624;BME280;61921;53.226;-1.296;2023-08-30T09:06:28;99539.23;;;15.53;96.80
73624;BME280;61921;53.226;-1.296;2023-08-30T09:08:52;99541.43;;;15.56;97.27
73624;BME280;61921;53.226;-1.296;2023-08-30T09:11:17;99545.76;;;15.47;97.94
73624;BME280;61921;53.226;-1.296;2023-08-30T09:13:43;99540.75;;;14.92;100.00
73624;BME280;61921;53.226;-1.296;2023-08-30T09:16:12;99541.57;;;14.45;100.00
73624;BME280;61921;53.226;-1.296;2023-08-30T09:18:33;99542.82;;;14.32;100.00
73624;BME280;61921;53.226;-1.296;2023-08-30T09:21:05;99541.01;;;14.41;100.00
73624;BME280;61921;53.226;-1.296;2023-08-30T09:23:24;99534.41;;;14.40;100.00
73624;BME280;61921;53.226;-1.296;2023-08-30T09:25:54;99531.25;;;14.76;100.00
73624;BME280;61921;53.226;-1.296;2023-08-30T09:28:14;99532.56;;;15.25;100.00
73624;BME280;61921;53.226;-1.296;2023-08-30T09:30:40;99528.51;;;15.31;100.00
73624;BME280;61921;53.226;-1.296;2023-08-30T09:33:05;99526.74;;;15.98;100.00
73624;BME280;61921;53.226;-1.296;2023-08-30T09:35:31;99522.01;;;16.28;100.00
73624;BME280;61921;53.226;-1.296;2023-08-30T09:37:56;99522.28;;;16.31;98.54
73624;BME280;61921;53.226;-1.296;2023-08-30T09:40:21;99523.95;;;16.05;99.75
73624;BME280;61921;53.226;-1.296;2023-08-30T09:42:46;99521.28;;;16.18;100.00
73624;BME280;61921;53.226;-1.296;2023-08-30T09:45:18;99524.35;;;15.81;100.00
73624;BME280;61921;53.226;-1.296;2023-08-30T09:47:37;99523.53;;;15.74;100.00
73624;BME280;61921;53.226;-1.296;2023-08-30T09:50:03;99520.82;;;15.52;100.00
73624;BME280;61921;53.226;-1.296;2023-08-30T09:52:28;99523.62;;;15.56;100.00
73624;BME280;61921;53.226;-1.296;2023-08-30T09:54:53;99528.15;;;15.28;100.00
73624;BME280;61921;53.226;-1.296;2023-08-30T09:57:18;99533.70;;;15.20;100.00
73624;BME280;61921;53.226;-1.296;2023-08-30T09:59:43;99534.52;;;14.78;100.00
73624;BME280;61921;53.226;-1.296;2023-08-30T10:02:09;99537.69;;;14.40;100.00
73624;BME280;61921;53.226;-1.296;2023-08-30T10:04:35;99536.91;;;14.22;100.00
73624;BME280;61921;53.226;-1.296;2023-08-30T10:06:59;99541.07;;;14.14;100.00
73624;BME280;61921;53.226;-1.296;2023-08-30T10:09:25;99540.61;;;14.39;100.00
73624;BME280;61921;53.226;-1.296;2023-08-30T10:11:51;99540.92;;;14.39;100.00
73624;BME280;61921;53.226;-1.296;2023-08-30T10:14:15;99534.83;;;14.69;100.00
73624;BME280;61921;53.226;-1.296;2023-08-30T10:16:43;99527.81;;;15.23;100.00
73624;BME280;61921;53.226;-1.296;2023-08-30T10:19:09;99525.12;;;15.73;100.00
73624;BME280;61921;53.226;-1.296;2023-08-30T10:21:31;99524.86;;;16.37;100.00
73624;BME280;61921;53.226;-1.296;2023-08-30T10:23:57;99521.24;;;16.66;100.00
73624;BME280;61921;53.226;-1.296;2023-08-30T10:26:22;99522.69;;;17.11;94.92
73624;BME280;61921;53.226;-1.296;2023-08-30T10:28:46;99522.87;;;17.18;91.79
73624;BME280;61921;53.226;-1.296;2023-08-30T10:31:13;99524.30;;;17.58;88.99
73624;BME280;61921;53.226;-1.296;2023-08-30T10:33:47;99521.52;;;17.47;87.22
73624;BME280;61921;53.226;-1.296;2023-08-30T10:36:05;99521.41;;;17.98;88.43
73624;BME280;61921;53.226;-1.296;2023-08-30T10:38:28;99522.63;;;18.41;85.57
73624;BME280;61921;53.226;-1.296;2023-08-30T10:40:52;99524.01;;;18.72;84.99
73624;BME280;61921;53.226;-1.296;2023-08-30T10:43:28;99518.02;;;18.83;75.42
73624;BME280;61921;53.226;-1.296;2023-08-30T10:45:42;99515.31;;;19.11;73.17
73624;BME280;61921;53.226;-1.296;2023-08-30T10:48:08;99515.89;;;19.21;75.53
73624;BME280;61921;53.226;-1.296;2023-08-30T10:50:34;99515.27;;;19.48;72.36
73624;BME280;61921;53.226;-1.296;2023-08-30T10:52:58;99517.39;;;18.90;74.70
73624;BME280;61921;53.226;-1.296;2023-08-30T10:55:23;99517.76;;;18.91;76.40
73624;BME280;61921;53.226;-1.296;2023-08-30T10:57:59;99520.13;;;18.59;78.08
73624;BME280;61921;53.226;-1.296;2023-08-30T11:00:20;99518.16;;;18.11;76.91
73624;BME280;61921;53.226;-1.296;2023-08-30T11:02:38;99518.59;;;18.15;76.63
73624;BME280;61921;53.226;-1.296;2023-08-30T11:05:06;99517.79;;;18.11;71.96
73624;BME280;61921;53.226;-1.296;2023-08-30T11:07:29;99519.56;;;18.30;69.19
73624;BME280;61921;53.226;-1.296;2023-08-30T11:09:54;99523.79;;;18.38;69.51
73624;BME280;61921;53.226;-1.296;2023-08-30T11:12:20;99524.54;;;17.59;66.19
73624;BME280;61921;53.226;-1.296;2023-08-30T11:14:44;99526.13;;;17.67;67.71
73624;BME280;61921;53.226;-1.296;2023-08-30T11:17:10;99525.48;;;18.32;67.06
73624;BME280;61921;53.226;-1.296;2023-08-30T11:19:34;99529.10;;;18.05;62.59
73624;BME280;61921;53.226;-1.296;2023-08-30T11:22:00;99523.23;;;17.97;64.59
73624;BME280;61921;53.226;-1.296;2023-08-30T11:24:25;99524.37;;;17.76;65.03
73624;BME280;61921;53.226;-1.296;2023-08-30T11:26:53;99527.77;;;17.49;65.71
73624;BME280;61921;53.226;-1.296;2023-08-30T11:29:16;99524.45;;;18.11;61.88
73624;BME280;61921;53.226;-1.296;2023-08-30T11:31:40;99522.42;;;18.48;58.46
73624;BME280;61921;53.226;-1.296;2023-08-30T11:34:05;99528.53;;;18.43;62.65
73624;BME280;61921;53.226;-1.296;2023-08-30T11:36:32;99531.60;;;18.53;56.58
73624;BME280;61921;53.226;-1.296;2023-08-30T11:38:57;99534.25;;;18.18;57.65
73624;BME280;61921;53.226;-1.296;2023-08-30T11:41:21;99530.81;;;18.00;57.62
73624;BME280;61921;53.226;-1.296;2023-08-30T11:43:47;99529.15;;;18.23;59.23
73624;BME280;61921;53.226;-1.296;2023-08-30T11:46:12;99527.53;;;17.78;59.55
73624;BME280;61921;53.226;-1.296;2023-08-30T11:48:36;99526.98;;;17.73;59.13
73624;BME280;61921;53.226;-1.296;2023-08-30T11:51:02;99526.77;;;17.43;60.51
73624;BME280;61921;53.226;-1.296;2023-08-30T11:53:27;99523.05;;;17.33;61.35
73624;BME280;61921;53.226;-1.296;2023-08-30T11:55:53;99522.40;;;17.53;60.87
73624;BME280;61921;53.226;-1.296;2023-08-30T11:58:18;99519.84;;;17.91;59.56
73624;BME280;61921;53.226;-1.296;2023-08-30T12:00:42;99515.14;;;18.31;59.14
73624;BME280;61921;53.226;-1.296;2023-08-30T12:03:07;99511.83;;;19.38;57.58
73624;BME280;61921;53.226;-1.296;2023-08-30T12:05:33;99519.04;;;19.68;54.87
73624;BME280;61921;53.226;-1.296;2023-08-30T12:07:58;99519.96;;;19.46;54.25
73624;BME280;61921;53.226;-1.296;2023-08-30T12:10:23;99513.98;;;18.66;56.25
73624;BME280;61921;53.226;-1.296;2023-08-30T12:12:48;99523.30;;;18.93;56.40
73624;BME280;61921;53.226;-1.296;2023-08-30T12:15:14;99520.01;;;19.78;56.85
73624;BME280;61921;53.226;-1.296;2023-08-30T12:17:38;99522.21;;;19.42;55.76
73624;BME280;61921;53.226;-1.296;2023-08-30T12:20:04;99529.34;;;19.23;58.41
73624;BME280;61921;53.226;-1.296;2023-08-30T12:22:35;99534.10;;;18.41;58.15
73624;BME280;61921;53.226;-1.296;2023-08-30T12:24:54;99531.28;;;18.32;57.50
73624;BME280;61921;53.226;-1.296;2023-08-30T12:27:19;99533.27;;;18.20;57.55
73624;BME280;61921;53.226;-1.296;2023-08-30T12:29:44;99541.47;;;18.17;56.24
73624;BME280;61921;53.226;-1.296;2023-08-30T12:32:09;99536.12;;;18.29;55.07
73624;BME280;61921;53.226;-1.296;2023-08-30T12:34:35;99537.77;;;18.77;54.15
73624;BME280;61921;53.226;-1.296;2023-08-30T12:37:00;99523.68;;;19.00;53.57